EISP weather

Spanish Point Airfield
Spanish Point, County Clare, Ireland

Public forecast

Using degrees Celsius for public forecast. Weather courtesy of forecast.io.

Closest aviation weather report (METAR) to Spanish Point Airfield

Closest report is Shannon Airport, 19.8 nm (36.6 km) ESE. Retrieved 2020/07/13 09:00 UTC (3 minutes ago):

EINN 130900Z 26009KT 9999 FEW010 BKN014 15/13 Q1022 NOSIG

Closest aviation forecast (TAF) to Spanish Point Airfield

Closest forecast is Shannon Airport, 19.8 nm (36.6 km) ESE. Retrieved 2020/07/13 06:09 UTC (3 hours ago):

TAF EINN 130500Z 1306/1406 26010KT 4000 -RADZ BKN004 BECMG 1306/1308 29010KT 9999 NSW BKN020 PROB40 TEMPO 1308/1313 BKN012